ADDS METAR Data INFO
IDs: Format: Raw Decoded Include TAF

Data at: 2038 UTC 22 Feb 2018

KFYV 221953Z 32003KT 10SM FEW017 OVC085 11/09 A3023 RMK AO2 RAB18E52 SLP242 P0002 T01060094
KFYV 221853Z 30004KT 10SM SCT120 12/08 A3027 RMK AO2 SLP253 T01170083
KFYV 221753Z 05003KT 10SM CLR 11/08 A3026 RMK AO2 SLP251 T01110078 10111 20017 58008
KFYV 221653Z 05004KT 10SM CLR 11/07 A3028 RMK AO2 SLP257 T01060072
KFYV 221553Z 08004KT 10SM CLR 07/05 A3030 RMK AO2 SLP267 T00670050
KFYV 221503Z 08003KT 10SM SCT006 04/03 A3030 RMK AO2 T00390033
KFYV 221453Z 12004KT 10SM BKN006 BKN045 04/03 A3029 RMK AO2 SLP264 T00390028
KFYV 221353Z 07006KT 10SM FEW007 OVC047 02/02 A3031 RMK AO2 SLP273 T00170017
KFYV 221253Z 07003KT 10SM FEW006 OVC044 02/02 A3033 RMK AO2 SLP278 T00170017 $
KFYV 221230Z 00000KT 10SM FEW005 OVC046 01/01 A3032 RMK AO2 T00110011 $
KFYV 221140Z AUTO 06003KT 5SM BR BKN004 OVC044 01/01 A3033 RMK AO2 T00110011
KFYV 221101Z AUTO 05004KT 10SM OVC005 01/01 A3032 RMK AO2 T00110011
KFYV 221053Z AUTO 00000KT 9SM OVC004 01/01 A3032 RMK AO2 SLP276 T00110011
KFYV 220953Z AUTO 00000KT 3SM BR OVC004 01/01 A3030 RMK AO2 SLP270 T00060006
KFYV 220853Z AUTO 04004KT 8SM OVC006 01/01 A3030 RMK AO2 CIG 003V008 SLP272 T00060006 53000
KFYV 220850Z AUTO 05005KT 9SM OVC006 01/01 A3030 RMK AO2 CIG 003V008
KFYV 220753Z AUTO 05005KT 3SM BR OVC004 01/01 A3030 RMK AO2 CIG 003V007 SLP271 T00060006
KFYV 220733Z AUTO 03003KT 3SM BR OVC004 01/01 A3031 RMK AO2 T00060006
KFYV 220716Z AUTO 05004KT 2 1/2SM BR OVC005 01/01 A3030 RMK AO2 CIG 003V007 T00060006
KFYV 220701Z AUTO 05004KT 2SM BR OVC004 01/01 A3030 RMK AO2 CIG 003V007 T00060006
KFYV 220653Z AUTO 06004KT 1 1/2SM BR OVC005 01/01 A3030 RMK AO2 SLP270 T00110011
KFYV 220635Z AUTO 06004KT 1 3/4SM BR OVC006 01/01 A3030 RMK AO2 T00110011
KFYV 220553Z AUTO 06004KT 10SM OVC006 01/01 A3030 RMK AO2 SLP269 60000 I6007 T00110011 10011 21006 400111011 53016
KFYV 220518Z AUTO 05003KT 10SM BKN007 OVC015 01/01 A3029 RMK AO2 T00110011
KFYV 220453Z AUTO 05005KT 10SM FEW008 OVC015 01/01 A3029 RMK AO2 SLP267 T00110011
KFYV 220441Z AUTO 04004KT 10SM FEW008 OVC014 01/01 A3029 RMK AO2 T00110011
KFYV 220412Z AUTO 36004KT 10SM OVC014 01/01 A3029 RMK AO2 T00110011
KFYV 220403Z 29005KT 10SM OVC016 01/01 A3031 RMK AO2 T00110011
KFYV 220353Z AUTO VRB04KT 10SM OVC014 01/01 A3024 RMK AO2 SLP249 I1001 T00060006
KFYV 212353Z 06006KT 3SM -FZRA BR OVC004 M01/M01 A3040 RMK AO2 SLP304 P0002 60003 I1002 I6004 T10061006 10000 21011 51025
KFYV 212253Z 03004KT 1 1/4SM -FZRA BR OVC004 M01/M01 A3039 RMK AO2 UPB2156E27FZRAB27 SLP300 P0001 I1002 T10061006
KFYV 212233Z 02006KT 1SM -FZRA BR OVC004 M01/M01 A3041 RMK AO2 UPB2156E27FZRAB27 P0000 I1001 T10061006
KFYV 212201Z 01004KT 1 3/4SM UP BR OVC004 M01/M01 A3039 RMK AO2 UPB2156 P0000 T10061006
KFYV 212153Z 01007KT 2SM BR OVC005 M01/M01 A3038 RMK AO2 SLP297 T10061006
KFYV 212144Z 35005KT 2 1/2SM BR OVC005 M01/M01 A3039 RMK AO2 T10061006
KFYV 212053Z 06009KT 5SM BR OVC006 M01/M01 A3032 RMK AO2 SLP279 T10061006 58003
KFYV 211953Z 03007KT 6SM BR OVC006 M01/M01 A3032 RMK AO2 SLP278 T10061006
KFYV 211853Z 03007KT 350V050 6SM BR OVC006 M01/M01 A3034 RMK AO2 SLP284 T10061006
KFYV 211753Z 05007G16KT 010V080 7SM OVC007 M01/M01 A3033 RMK AO2 UPE1654 SLP282 P0000 60000 T10061011 10000 21011 58023
KFYV 211653Z 01004G14KT 9SM UP OVC007 00/M01 A3038 RMK AO2 UPB42 PRESRR SLP296 P0000 T00001006
KFYV 211553Z VRB04G15KT 10SM OVC007 M01/M02 A3040 RMK AO2 SLP302 T10111017
KFYV 211453Z 04006KT 10SM OVC006 M01/M01 A3040 RMK AO2 SLP305 T10111011 53027
KFYV 211353Z VRB03KT 8SM OVC005 M01/M01 A3037 RMK AO2 SLP293 T10111011
KFYV 211253Z 05009KT 9SM OVC006 M01/M01 A3036 RMK AO2 SLP288 T10111011